Aviation Digital Data Service (ADDS)

Output produced by METARs form (1746 UTC 21 September 2019)
found at http://aviationweather.gov/metar/data/
 
KIPJ 211735Z AUTO 22004KT 10SM CLR 29/13 A3028 RMK AO2 T02860125
KIPJ 211715Z AUTO 27004KT 10SM CLR 28/12 A3030 RMK AO2 T02800122
KIPJ 211655Z AUTO 00000KT 10SM CLR 28/13 A3030 RMK AO2 T02770125